createdAt,value
2018-03-25T00:01:25.649Z,1.35
2018-03-25T00:03:55.166Z,1.30
2018-03-25T00:06:23.454Z,1.38
2018-03-25T00:08:51.716Z,1.29
2018-03-25T00:11:19.976Z,1.14
2018-03-25T00:13:48.244Z,1.06
2018-03-25T00:16:16.582Z,1.00
2018-03-25T00:18:45.029Z,1.34
2018-03-25T00:21:13.511Z,1.24
2018-03-25T00:23:42.544Z,1.18
2018-03-25T00:26:10.851Z,1.20
2018-03-25T00:28:39.132Z,1.09
2018-03-25T00:31:07.397Z,1.26
2018-03-25T00:33:36.821Z,1.15
2018-03-25T00:36:05.828Z,1.16
2018-03-25T00:38:34.877Z,1.17
2018-03-25T00:41:03.892Z,1.06
2018-03-25T00:43:32.255Z,0.96
2018-03-25T00:46:00.571Z,1.00
2018-03-25T00:48:28.864Z,0.85
2018-03-25T00:50:57.406Z,0.96
2018-03-25T00:53:26.517Z,0.92
2018-03-25T00:55:54.956Z,0.76
2018-03-25T00:58:23.228Z,0.89
2018-03-25T01:00:51.810Z,0.96
2018-03-25T01:03:20.105Z,0.98
2018-03-25T01:05:48.398Z,0.88
2018-03-25T01:08:17.500Z,0.91
2018-03-25T01:10:45.831Z,0.97
2018-03-25T01:13:14.226Z,0.85
2018-03-25T01:16:00.338Z,1.02
2018-03-25T01:18:28.736Z,0.98
2018-03-25T01:20:57.149Z,1.02
2018-03-25T01:23:26.252Z,1.05
2018-03-25T01:25:55.403Z,0.86
2018-03-25T01:28:23.822Z,0.83
2018-03-25T01:30:52.172Z,0.75
2018-03-25T01:33:20.441Z,0.54
2018-03-25T01:35:49.461Z,0.53
2018-03-25T01:38:18.585Z,0.49
2018-03-25T01:40:46.897Z,0.46
2018-03-25T01:43:15.208Z,0.47
2018-03-25T01:45:43.507Z,0.27
2018-03-25T01:48:11.841Z,0.16
2018-03-25T01:50:40.110Z,0.15
2018-03-25T01:53:09.132Z,0.25
2018-03-25T01:55:38.161Z,0.37
2018-03-25T01:58:06.437Z,0.51
2018-03-25T02:00:34.757Z,0.37
2018-03-25T02:03:03.016Z,0.24
2018-03-25T02:05:32.131Z,0.33
2018-03-25T02:08:00.430Z,0.34
2018-03-25T02:10:28.788Z,0.26
2018-03-25T02:12:57.179Z,0.48
2018-03-25T02:15:26.846Z,0.36
2018-03-25T02:17:55.153Z,0.14
2018-03-25T02:20:23.496Z,0.18
2018-03-25T02:22:51.766Z,0.23
2018-03-25T02:25:20.817Z,0.27
2018-03-25T02:27:49.103Z,0.21
2018-03-25T02:30:17.529Z,0.06
2018-03-25T02:32:45.784Z,0.26
2018-03-25T02:35:14.229Z,0.32
2018-03-25T02:37:42.479Z,0.24
2018-03-25T02:40:10.756Z,0.24
2018-03-25T02:42:39.026Z,0.14
2018-03-25T02:45:07.312Z,0.14
2018-03-25T02:47:35.570Z,-0.09
2018-03-25T02:50:03.852Z,-0.05
2018-03-25T02:52:32.114Z,-0.05
2018-03-25T02:55:00.436Z,0.19
2018-03-25T02:57:29.556Z,0.04
2018-03-25T02:59:58.101Z,-0.07
2018-03-25T03:02:26.628Z,-0.04
2018-03-25T03:04:55.010Z,-0.13
2018-03-25T03:07:23.364Z,-0.20
2018-03-25T03:09:51.641Z,-0.02
2018-03-25T03:12:20.678Z,-0.09
2018-03-25T03:14:48.932Z,-0.08
2018-03-25T03:17:17.226Z,-0.17
2018-03-25T03:19:45.489Z,-0.17
2018-03-25T03:22:15.816Z,-0.17
2018-03-25T03:24:44.857Z,-0.28
2018-03-25T03:27:14.312Z,-0.28
2018-03-25T03:29:43.399Z,-0.30
2018-03-25T03:32:11.776Z,-0.25
2018-03-25T03:34:40.035Z,-0.19
2018-03-25T03:37:09.177Z,-0.19
2018-03-25T03:39:37.472Z,-0.49
2018-03-25T03:42:05.850Z,-0.61
2018-03-25T03:44:34.143Z,-0.47
2018-03-25T03:47:03.262Z,-0.40
2018-03-25T03:49:31.544Z,-0.32
2018-03-25T03:52:00.137Z,-0.32
2018-03-25T03:54:28.531Z,-0.36
2018-03-25T03:56:58.363Z,-0.34
2018-03-25T03:59:28.542Z,-0.19
2018-03-25T04:01:56.969Z,-0.12
2018-03-25T04:04:25.510Z,-0.29
2018-03-25T04:06:53.811Z,-0.31
2018-03-25T04:09:22.160Z,-0.40
2018-03-25T04:11:51.619Z,-0.44
2018-03-25T04:14:19.892Z,-0.35
2018-03-25T04:16:48.465Z,-0.40
2018-03-25T04:19:16.764Z,-0.43
2018-03-25T04:21:45.045Z,-0.48
2018-03-25T04:24:13.436Z,-0.41
2018-03-25T04:26:41.909Z,-0.42
2018-03-25T04:29:10.962Z,-0.48
2018-03-25T04:31:39.228Z,-0.53
2018-03-25T04:34:07.504Z,-0.75
2018-03-25T04:36:36.539Z,-0.79
2018-03-25T04:39:06.800Z,-0.81
2018-03-25T04:41:35.062Z,-0.70
2018-03-25T04:44:03.348Z,-0.69
2018-03-25T04:46:31.627Z,-0.76
2018-03-25T04:49:00.108Z,-0.72
2018-03-25T04:51:28.463Z,-0.54
2018-03-25T04:53:57.788Z,-0.55
2018-03-25T04:56:26.167Z,-0.53
2018-03-25T04:58:54.506Z,-0.54
2018-03-25T05:01:22.764Z,-0.53
2018-03-25T05:03:52.414Z,-0.45
2018-03-25T05:06:20.688Z,-0.64
2018-03-25T05:08:49.734Z,-0.73
2018-03-25T05:11:18.024Z,-0.72
2018-03-25T05:13:46.395Z,-0.56
2018-03-25T05:16:14.986Z,-0.40
2018-03-25T05:18:43.284Z,-0.31
2018-03-25T05:21:11.574Z,-0.30
2018-03-25T05:23:39.877Z,-0.39
2018-03-25T05:26:08.252Z,-0.26
2018-03-25T05:28:36.546Z,-0.14
2018-03-25T05:31:04.829Z,0.02
2018-03-25T05:33:33.109Z,0.00
2018-03-25T05:36:02.168Z,-0.08
2018-03-25T05:38:30.548Z,0.10
2018-03-25T05:40:58.897Z,0.10
2018-03-25T05:43:27.230Z,0.22
2018-03-25T05:45:55.528Z,0.36
2018-03-25T05:48:23.945Z,0.40
2018-03-25T05:50:52.200Z,0.34
2018-03-25T05:53:20.459Z,0.46
2018-03-25T05:55:48.753Z,0.62
2018-03-25T05:58:17.045Z,0.76
2018-03-25T06:00:45.431Z,0.75
2018-03-25T06:03:13.933Z,0.92
2018-03-25T06:05:42.409Z,0.88
2018-03-25T06:08:10.819Z,0.90
2018-03-25T06:10:39.113Z,1.04
2018-03-25T06:13:07.459Z,1.21
2018-03-25T06:15:36.512Z,1.38
2018-03-25T06:18:04.776Z,1.40
2018-03-25T06:20:34.411Z,1.47
2018-03-25T06:23:02.710Z,1.59
2018-03-25T06:25:30.981Z,1.72
2018-03-25T06:27:59.306Z,1.76
2018-03-25T06:30:27.891Z,1.83
2018-03-25T06:32:56.194Z,2.06
2018-03-25T06:35:25.378Z,2.30
2018-03-25T06:37:53.683Z,2.53
2018-03-25T06:40:22.044Z,2.38
2018-03-25T06:42:50.302Z,2.51
2018-03-25T06:45:18.572Z,2.50
2018-03-25T06:47:46.851Z,2.59
2018-03-25T06:50:15.137Z,2.72
2018-03-25T06:52:43.408Z,2.89
2018-03-25T06:55:11.685Z,3.22
2018-03-25T06:57:39.958Z,3.15
2018-03-25T07:00:09.014Z,3.48
2018-03-25T07:02:37.268Z,3.35
2018-03-25T07:05:05.572Z,3.39
2018-03-25T07:07:33.842Z,3.55
2018-03-25T07:10:03.477Z,3.66
2018-03-25T07:12:31.769Z,3.80
2018-03-25T07:15:00.214Z,3.98
2018-03-25T07:17:28.523Z,4.23
2018-03-25T07:19:56.869Z,4.39
2018-03-25T07:22:25.218Z,4.52
2018-03-25T07:24:53.477Z,4.64
2018-03-25T07:27:21.785Z,4.88
2018-03-25T07:29:50.815Z,4.94
2018-03-25T07:32:19.090Z,5.02
2018-03-25T07:34:47.346Z,5.26
2018-03-25T07:37:15.667Z,5.50
2018-03-25T07:39:44.701Z,5.56
2018-03-25T07:42:12.989Z,5.65
2018-03-25T07:44:41.242Z,5.89
2018-03-25T07:47:10.351Z,6.04
2018-03-25T07:49:39.367Z,6.27
2018-03-25T07:52:08.408Z,6.22
2018-03-25T07:54:36.675Z,6.42
2018-03-25T07:57:04.971Z,6.31
2018-03-25T07:59:33.236Z,6.36
2018-03-25T08:02:02.298Z,6.77
2018-03-25T08:04:30.689Z,6.83
2018-03-25T08:06:59.056Z,6.87
2018-03-25T08:09:27.537Z,6.81
2018-03-25T08:11:55.999Z,6.62
2018-03-25T08:14:24.691Z,6.94
2018-03-25T08:16:52.968Z,6.97
2018-03-25T08:19:22.245Z,7.17
2018-03-25T08:21:50.625Z,7.40
2018-03-25T08:24:18.897Z,7.54
2018-03-25T08:26:47.940Z,7.43
2018-03-25T08:29:16.231Z,7.31
2018-03-25T08:31:44.523Z,7.70
2018-03-25T08:34:12.826Z,7.40
2018-03-25T08:36:41.161Z,7.30
2018-03-25T08:39:10.220Z,7.45
2018-03-25T08:41:38.496Z,7.84
2018-03-25T08:44:06.764Z,8.23
2018-03-25T08:46:35.040Z,8.29
2018-03-25T08:49:04.067Z,8.35
2018-03-25T08:51:33.117Z,8.31
2018-03-25T08:54:01.509Z,8.54
2018-03-25T08:56:31.600Z,8.88
2018-03-25T08:59:00.707Z,8.72
2018-03-25T09:01:29.019Z,8.77
2018-03-25T09:03:57.598Z,8.75
2018-03-25T09:06:26.173Z,8.69
2018-03-25T09:08:55.570Z,9.22
2018-03-25T09:11:25.127Z,9.02
2018-03-25T09:13:54.687Z,9.11
2018-03-25T09:16:22.948Z,9.38
2018-03-25T09:18:51.223Z,9.18
2018-03-25T09:21:19.536Z,8.97
2018-03-25T09:23:47.931Z,9.45
2018-03-25T09:26:16.265Z,9.41
2018-03-25T09:28:44.556Z,9.34
2018-03-25T09:31:13.585Z,9.23
2018-03-25T09:33:41.868Z,9.63
2018-03-25T09:36:11.640Z,9.57
2018-03-25T09:38:39.911Z,9.97
2018-03-25T09:41:08.174Z,9.57
2018-03-25T09:43:37.399Z,9.17
2018-03-25T09:46:05.644Z,9.24
2018-03-25T09:48:34.700Z,9.57
2018-03-25T09:51:02.961Z,9.63
2018-03-25T09:53:32.116Z,9.74
2018-03-25T09:56:00.414Z,9.67
2018-03-25T09:58:28.801Z,9.95
2018-03-25T10:01:02.611Z,9.99
2018-03-25T10:03:32.713Z,10.25
2018-03-25T10:06:00.990Z,10.25
2018-03-25T10:08:30.131Z,10.81
2018-03-25T10:10:59.231Z,10.15
2018-03-25T10:13:27.713Z,10.84
2018-03-25T10:15:56.199Z,10.28
2018-03-25T10:18:25.319Z,9.89
2018-03-25T10:20:54.009Z,10.39
2018-03-25T10:23:22.325Z,10.25
2018-03-25T10:25:52.500Z,10.33
2018-03-25T10:28:20.778Z,10.91
2018-03-25T10:30:49.056Z,11.01
2018-03-25T10:33:17.317Z,10.37
2018-03-25T10:35:45.594Z,10.63
2018-03-25T10:38:13.851Z,10.44
2018-03-25T10:40:42.129Z,10.67
2018-03-25T10:43:10.397Z,10.69
2018-03-25T10:45:38.670Z,10.85
2018-03-25T10:48:06.949Z,11.18
2018-03-25T10:50:35.253Z,11.18
2018-03-25T10:53:03.502Z,11.28
2018-03-25T10:55:32.543Z,11.11
2018-03-25T10:58:00.823Z,11.41
2018-03-25T11:00:29.936Z,10.90
2018-03-25T11:02:58.263Z,11.40
2018-03-25T11:05:27.522Z,11.62
2018-03-25T11:07:55.946Z,11.26
2018-03-25T11:10:24.461Z,11.94
2018-03-25T11:12:54.621Z,11.59
2018-03-25T11:15:23.690Z,12.08
2018-03-25T11:17:52.748Z,12.03
2018-03-25T11:20:21.793Z,12.03
2018-03-25T11:22:50.065Z,11.75
2018-03-25T11:25:18.340Z,11.76
2018-03-25T11:27:47.372Z,12.23
2018-03-25T11:30:15.648Z,11.99
2018-03-25T11:32:43.956Z,12.46
2018-03-25T11:35:12.251Z,11.98
2018-03-25T11:37:40.538Z,11.92
2018-03-25T11:40:08.905Z,12.25
2018-03-25T11:42:37.913Z,12.04
2018-03-25T11:45:06.192Z,12.62
2018-03-25T11:47:35.289Z,12.32
2018-03-25T11:50:03.558Z,12.41
2018-03-25T11:52:31.881Z,12.49
2018-03-25T11:55:01.277Z,12.20
2018-03-25T11:57:29.810Z,12.35
2018-03-25T11:59:58.291Z,12.27
2018-03-25T12:02:28.519Z,12.57
2018-03-25T12:04:57.055Z,12.83
2018-03-25T12:07:25.704Z,12.57
2018-03-25T12:09:54.483Z,12.82
2018-03-25T12:12:23.574Z,12.67
2018-03-25T12:14:51.920Z,12.45
2018-03-25T12:17:20.952Z,12.47
2018-03-25T12:19:49.209Z,12.54
2018-03-25T12:22:17.496Z,12.77
2018-03-25T12:24:45.780Z,12.98
2018-03-25T12:27:14.952Z,13.08
2018-03-25T12:29:43.221Z,13.09
2018-03-25T12:32:11.507Z,12.69
2018-03-25T12:34:41.107Z,12.95
2018-03-25T12:37:09.380Z,12.94
2018-03-25T12:39:37.684Z,12.69
2018-03-25T12:42:06.804Z,12.83
2018-03-25T12:44:35.081Z,12.19
2018-03-25T12:47:03.367Z,12.08
2018-03-25T12:49:31.633Z,12.90
2018-03-25T12:52:00.764Z,12.67
2018-03-25T12:54:29.143Z,12.96
2018-03-25T12:56:58.413Z,13.12
2018-03-25T12:59:26.770Z,12.68
2018-03-25T13:01:55.268Z,12.62
2018-03-25T13:04:23.579Z,13.14
2018-03-25T13:06:53.067Z,13.54
2018-03-25T13:09:21.500Z,13.05
2018-03-25T13:11:49.804Z,12.74
2018-03-25T13:14:18.120Z,12.31
2018-03-25T13:16:47.188Z,12.81
2018-03-25T13:19:15.500Z,13.20
2018-03-25T13:21:43.820Z,13.20
2018-03-25T13:24:12.180Z,13.20
2018-03-25T13:26:40.533Z,13.29
2018-03-25T13:29:08.851Z,13.49
2018-03-25T13:31:37.145Z,13.14
2018-03-25T13:34:05.508Z,13.32
2018-03-25T13:36:33.792Z,13.40
2018-03-25T13:39:02.880Z,12.96
2018-03-25T13:41:31.219Z,13.26
2018-03-25T13:43:59.638Z,13.37
2018-03-25T13:46:28.974Z,13.31
2018-03-25T13:48:57.360Z,13.64
2018-03-25T13:51:25.806Z,13.76
2018-03-25T13:53:55.506Z,13.71
2018-03-25T13:56:23.814Z,13.39
2018-03-25T13:58:53.535Z,13.58
2018-03-25T14:01:21.881Z,13.78
2018-03-25T14:03:50.948Z,13.91
2018-03-25T14:06:19.260Z,13.92
2018-03-25T14:08:48.324Z,14.28
2018-03-25T14:11:16.628Z,13.72
2018-03-25T14:13:44.932Z,13.64
2018-03-25T14:16:13.999Z,13.76
2018-03-25T14:18:42.307Z,14.36
2018-03-25T14:21:10.580Z,14.59
2018-03-25T14:23:38.907Z,14.30
2018-03-25T14:26:09.829Z,14.21
2018-03-25T14:28:38.147Z,14.03
2018-03-25T14:31:06.441Z,14.23
2018-03-25T14:33:35.583Z,14.26
2018-03-25T14:36:03.887Z,14.35
2018-03-25T14:38:32.165Z,13.90
2018-03-25T14:41:00.514Z,14.54
2018-03-25T14:43:28.946Z,14.33
2018-03-25T14:45:57.470Z,14.37
2018-03-25T14:48:25.974Z,14.55
2018-03-25T14:50:54.396Z,14.54
2018-03-25T14:53:22.681Z,14.42
2018-03-25T14:55:51.784Z,14.09
2018-03-25T14:58:20.112Z,14.28
2018-03-25T15:00:48.521Z,14.03
2018-03-25T15:03:16.792Z,14.30
2018-03-25T15:05:45.104Z,14.25
2018-03-25T15:08:13.392Z,13.97
2018-03-25T15:10:41.713Z,14.07
2018-03-25T15:13:09.993Z,14.47
2018-03-25T15:15:38.315Z,14.73
2018-03-25T15:18:07.354Z,14.07
2018-03-25T15:20:35.661Z,14.14
2018-03-25T15:23:03.956Z,14.12
2018-03-25T15:25:32.341Z,13.84
2018-03-25T15:28:00.724Z,13.81
2018-03-25T15:30:29.357Z,14.30
2018-03-25T15:32:58.625Z,14.11
2018-03-25T15:35:28.116Z,14.08
2018-03-25T15:37:56.693Z,14.11
2018-03-25T15:40:25.224Z,13.99
2018-03-25T15:42:53.644Z,14.14
2018-03-25T15:45:22.907Z,13.76
2018-03-25T15:47:51.164Z,13.49
2018-03-25T15:50:19.515Z,13.32
2018-03-25T15:52:48.646Z,13.41
2018-03-25T15:55:16.957Z,13.34
2018-03-25T15:57:45.253Z,13.13
2018-03-25T16:00:13.571Z,12.77
2018-03-25T16:02:42.684Z,12.95
2018-03-25T16:05:11.755Z,12.95
2018-03-25T16:07:40.249Z,12.97
2018-03-25T16:10:08.552Z,12.99
2018-03-25T16:12:36.850Z,12.90
2018-03-25T16:15:05.147Z,12.62
2018-03-25T16:17:33.466Z,12.73
2018-03-25T16:20:01.753Z,12.38
2018-03-25T16:22:30.125Z,12.33
2018-03-25T16:24:59.257Z,12.24
2018-03-25T16:27:27.761Z,12.20
2018-03-25T16:29:56.229Z,12.00
2018-03-25T16:32:24.620Z,12.10
2018-03-25T16:34:52.954Z,12.12
2018-03-25T16:37:21.272Z,12.03
2018-03-25T16:39:49.589Z,11.97
2018-03-25T16:42:18.706Z,11.79
2018-03-25T16:44:47.762Z,11.82
2018-03-25T16:47:16.110Z,11.58
2018-03-25T16:49:44.446Z,11.47
2018-03-25T16:52:13.526Z,11.48
2018-03-25T16:54:41.783Z,11.49
2018-03-25T16:57:10.874Z,11.54
2018-03-25T16:59:39.153Z,11.53
2018-03-25T17:02:07.456Z,11.25
2018-03-25T17:04:35.733Z,11.28
2018-03-25T17:07:04.026Z,11.17
2018-03-25T17:09:32.298Z,11.05
2018-03-25T17:12:00.623Z,10.92
2018-03-25T17:14:29.666Z,10.84
2018-03-25T17:16:57.948Z,10.74
2018-03-25T17:19:26.315Z,10.69
2018-03-25T17:21:55.464Z,10.65
2018-03-25T17:24:23.861Z,10.36
2018-03-25T17:26:52.161Z,10.31
2018-03-25T17:29:20.449Z,10.29
2018-03-25T17:31:48.748Z,10.06
2018-03-25T17:34:17.052Z,9.84
2018-03-25T17:36:46.099Z,9.75
2018-03-25T17:39:15.177Z,9.61
2018-03-25T17:41:43.440Z,9.56
2018-03-25T17:44:11.739Z,9.63
2018-03-25T17:46:40.785Z,9.68
2018-03-25T17:49:09.081Z,9.45
2018-03-25T17:51:38.116Z,9.24
2018-03-25T17:54:06.380Z,9.41
2018-03-25T17:56:34.674Z,9.09
2018-03-25T17:59:02.949Z,9.10
2018-03-25T18:01:32.716Z,8.98
2018-03-25T18:04:01.027Z,8.78
2018-03-25T18:06:30.117Z,8.70
2018-03-25T18:08:58.485Z,8.49
2018-03-25T18:11:26.941Z,8.54
2018-03-25T18:13:55.384Z,8.61
2018-03-25T18:16:23.944Z,8.40
2018-03-25T18:18:52.998Z,8.36
2018-03-25T18:21:22.060Z,8.12
2018-03-25T18:23:51.132Z,8.06
2018-03-25T18:26:19.401Z,7.90
2018-03-25T18:28:47.764Z,7.74
2018-03-25T18:31:16.034Z,7.65
2018-03-25T18:33:45.080Z,7.47
2018-03-25T18:36:13.326Z,7.32
2018-03-25T18:38:42.390Z,7.23
2018-03-25T18:41:10.667Z,7.13
2018-03-25T18:43:38.940Z,7.12
2018-03-25T18:46:07.204Z,7.07
2018-03-25T18:48:35.496Z,7.03
2018-03-25T18:51:05.423Z,6.98
2018-03-25T18:53:34.456Z,6.94
2018-03-25T18:56:02.725Z,6.91
2018-03-25T18:58:31.760Z,6.89
2018-03-25T19:01:00.123Z,6.87
2018-03-25T19:03:28.532Z,6.76
2018-03-25T19:05:57.095Z,6.68
2018-03-25T19:08:26.200Z,6.60
2018-03-25T19:10:54.573Z,6.49
2018-03-25T19:13:23.024Z,6.47
2018-03-25T19:15:51.289Z,6.43
2018-03-25T19:18:20.332Z,6.39
2018-03-25T19:20:48.612Z,6.33
2018-03-25T19:23:16.899Z,6.26
2018-03-25T19:25:45.156Z,6.16
2018-03-25T19:28:14.205Z,6.05
2018-03-25T19:30:42.473Z,6.02
2018-03-25T19:33:10.758Z,5.97
2018-03-25T19:35:39.016Z,6.00
2018-03-25T19:38:07.341Z,6.02
2018-03-25T19:40:35.649Z,6.12
2018-03-25T19:43:04.643Z,6.09
2018-03-25T19:45:32.924Z,6.15
2018-03-25T19:48:01.189Z,6.22
2018-03-25T19:50:29.589Z,6.08
2018-03-25T19:52:57.929Z,6.07
2018-03-25T19:55:26.387Z,6.03
2018-03-25T19:57:54.887Z,5.95
2018-03-25T20:00:24.004Z,6.02
2018-03-25T20:02:52.342Z,5.94
2018-03-25T20:05:20.620Z,5.95
2018-03-25T20:07:49.647Z,5.95
2018-03-25T20:10:17.982Z,5.89
2018-03-25T20:12:46.310Z,5.97
2018-03-25T20:15:14.605Z,6.02
2018-03-25T20:17:43.684Z,6.10
2018-03-25T20:20:11.988Z,6.13
2018-03-25T20:22:40.284Z,6.19
2018-03-25T20:25:08.569Z,6.28
2018-03-25T20:27:36.844Z,6.37
2018-03-25T20:30:05.131Z,6.42
2018-03-25T20:32:33.389Z,6.45
2018-03-25T20:35:01.707Z,6.57
2018-03-25T20:37:30.046Z,6.51
2018-03-25T20:39:58.423Z,6.50
2018-03-25T20:42:26.747Z,6.53
2018-03-25T20:44:55.216Z,6.49
2018-03-25T20:47:23.517Z,6.46
2018-03-25T20:49:51.818Z,6.54
2018-03-25T20:52:20.163Z,6.51
2018-03-25T20:54:48.430Z,6.46
2018-03-25T20:57:16.759Z,6.37
2018-03-25T20:59:45.170Z,6.41
2018-03-25T21:02:14.331Z,6.32
2018-03-25T21:04:42.627Z,6.33
2018-03-25T21:07:10.893Z,6.22
2018-03-25T21:09:39.178Z,6.22
2018-03-25T21:12:07.463Z,6.12
2018-03-25T21:14:35.741Z,6.10
2018-03-25T21:17:04.772Z,6.14
2018-03-25T21:19:33.033Z,6.13
2018-03-25T21:22:02.088Z,6.22
2018-03-25T21:24:30.458Z,6.17
2018-03-25T21:26:58.792Z,6.21
2018-03-25T21:29:27.932Z,6.19
2018-03-25T21:31:56.446Z,6.23
2018-03-25T21:34:26.133Z,6.13
2018-03-25T21:36:55.462Z,6.14
2018-03-25T21:39:23.825Z,6.07
2018-03-25T21:41:52.182Z,6.01
2018-03-25T21:44:20.433Z,5.91
2018-03-25T21:46:48.716Z,6.00
2018-03-25T21:49:17.029Z,5.89
2018-03-25T21:51:45.435Z,5.71
2018-03-25T21:54:13.792Z,5.67
2018-03-25T21:56:42.020Z,5.67
2018-03-25T21:59:10.280Z,5.63
2018-03-25T22:01:38.560Z,5.54
2018-03-25T22:04:07.586Z,5.44
2018-03-25T22:06:35.885Z,5.36
2018-03-25T22:09:04.156Z,5.24
2018-03-25T22:11:32.417Z,5.19
2018-03-25T22:14:00.754Z,5.17
2018-03-25T22:16:29.089Z,5.11
2018-03-25T22:19:00.111Z,5.09
2018-03-25T22:21:28.455Z,5.07
2018-03-25T22:23:56.939Z,4.95
2018-03-25T22:26:25.408Z,4.91
2018-03-25T22:28:53.705Z,4.88
2018-03-25T22:31:22.024Z,4.82
2018-03-25T22:33:51.070Z,4.72
2018-03-25T22:36:19.330Z,4.64
2018-03-25T22:38:47.601Z,4.60
2018-03-25T22:41:15.896Z,4.54
2018-03-25T22:43:44.945Z,4.65
2018-03-25T22:46:13.248Z,4.62
2018-03-25T22:48:41.573Z,4.71
2018-03-25T22:51:10.601Z,4.63
2018-03-25T22:53:38.885Z,4.59
2018-03-25T22:56:07.913Z,4.57
2018-03-25T22:58:36.197Z,4.59
2018-03-25T23:01:04.450Z,4.63
2018-03-25T23:03:33.500Z,4.57
2018-03-25T23:06:01.770Z,4.57
2018-03-25T23:08:30.803Z,4.48
2018-03-25T23:10:59.087Z,4.37
2018-03-25T23:13:28.449Z,4.21
2018-03-25T23:15:57.653Z,4.08
2018-03-25T23:18:26.042Z,4.07
2018-03-25T23:20:55.430Z,3.98
2018-03-25T23:23:24.662Z,4.04
2018-03-25T23:25:52.921Z,3.99
2018-03-25T23:28:21.280Z,3.98
2018-03-25T23:30:50.310Z,3.89
2018-03-25T23:33:19.404Z,4.00
2018-03-25T23:35:47.672Z,3.95
2018-03-25T23:38:15.996Z,3.88
2018-03-25T23:40:45.076Z,3.86
2018-03-25T23:43:13.402Z,3.81
2018-03-25T23:45:41.678Z,3.77
2018-03-25T23:48:09.931Z,3.62
2018-03-25T23:50:38.214Z,3.68
2018-03-25T23:53:06.456Z,3.61
2018-03-25T23:55:34.726Z,3.55
2018-03-25T23:58:03.797Z,3.38
